Ana Sayfa
METAR-TAF:

METAR-TAF

Havaalanları :

Bender Abbas Havalimanı

Bender Abbas, İran

Enlem: 27-13N, Boylam: 056-22E, yükseklik: 10 m

Güncel hava durumu gözlemi

Rapor saat 16:00 UTC de 44 dakika önce yapıldı.
Rüzgar batıdan 4 kt
Sıcaklık 18°C
Nem 49%
Basınç 1016 hPa
Görüş mesafesi 10 km veya daha fazla
1500 m altında bulut yok ve kümülonimbus yok

METAR: OIKB 141600Z 27004KT CAVOK 18/07 Q1015 A2999

Saat: 20:14 (16:44 UTC)

Tahmin

Rapor saat 11:10 UTC de 29 saat ve 34 dakika önce yapıldı.
Ayın 13'si saat 12 UTC'den ayın 14'si saat 18 UTC'ye kadar geçerli Tahmin
Rüzgar kuzeydoğudan 6 kt
Görüş mesafesi: 7000 m
Geçici
ayın 13'si saat 12 UTC'den ayın 13'si saat 15 UTC'ye kadar
3000 ft yükseklikte az bulutlu, Yükselen kümülüs.
10000 ft yükseklikte parçalı bulutlu

TAF: OIKB 131110Z 1312/1418 05006KT 7000 NSC TEMPO 1312/1315 FEW030TCU SCT100

4.000'den fazla havaalanı için hava durumu gözlemleri ve tahminleri (METAR ve TAF raporları).

Kullanılabilir istasyonlar harita üzerinde sarı ve kırmızı noktalarla gösterilir.

İstasyonun adını görmek için fareyi noktanın üzerinde gezdirin.

Sonrasında hava gözlem ve tahminlerini görmek için tıklayın.

Haritayı değiştirmek için: yaklaştırmak için siyah artı işaretli yeşil düğmeye ve uzaklaştırmak için de eksi işaretli düğmeye hızla tıklayın; bitişik haritalar için yeşil okları kullanın.


METAR-TAF: